createdAt,value
2018-09-12T00:00:17.859Z,11.50
2018-09-12T00:02:45.944Z,14.73
2018-09-12T00:05:14.551Z,10.00
2018-09-12T00:07:42.435Z,13.37
2018-09-12T00:10:11.348Z,9.73
2018-09-12T00:12:42.756Z,8.30
2018-09-12T00:15:10.744Z,10.80
2018-09-12T00:17:38.709Z,10.80
2018-09-12T00:20:06.737Z,9.77
2018-09-12T00:22:34.675Z,10.40
2018-09-12T00:25:02.881Z,10.57
2018-09-12T00:27:30.849Z,10.37
2018-09-12T00:29:58.807Z,15.73
2018-09-12T00:32:26.702Z,15.63
2018-09-12T00:34:54.574Z,13.67
2018-09-12T00:37:22.578Z,14.40
2018-09-12T00:39:50.556Z,14.83
2018-09-12T00:42:18.513Z,15.43
2018-09-12T00:44:46.635Z,14.80
2018-09-12T00:47:14.631Z,16.07
2018-09-12T00:49:42.846Z,16.33
2018-09-12T00:52:10.804Z,13.77
2018-09-12T00:54:39.212Z,16.20
2018-09-12T00:57:07.202Z,14.37
2018-09-12T00:59:35.170Z,14.73
2018-09-12T01:02:03.091Z,16.13
2018-09-12T01:04:31.241Z,13.97
2018-09-12T01:06:59.267Z,16.07
2018-09-12T01:09:27.238Z,15.40
2018-09-12T01:11:55.248Z,15.53
2018-09-12T01:14:23.393Z,15.50
2018-09-12T01:16:54.342Z,16.40
2018-09-12T01:19:22.348Z,14.40
2018-09-12T01:21:50.379Z,14.40
2018-09-12T01:24:18.379Z,15.00
2018-09-12T01:26:46.494Z,14.57
2018-09-12T01:29:14.774Z,13.67
2018-09-12T01:31:42.886Z,14.03
2018-09-12T01:34:10.880Z,16.03
2018-09-12T01:36:39.196Z,15.27
2018-09-12T01:39:08.194Z,14.27
2018-09-12T01:41:36.445Z,15.27
2018-09-12T01:44:04.440Z,14.57
2018-09-12T01:46:32.603Z,12.37
2018-09-12T01:49:01.114Z,13.20
2018-09-12T01:51:29.131Z,25.83
2018-09-12T01:53:57.037Z,14.27
2018-09-12T01:56:25.008Z,16.30
2018-09-12T01:58:53.282Z,13.80
2018-09-12T02:01:21.280Z,13.97
2018-09-12T02:03:49.284Z,17.03
2018-09-12T02:06:17.184Z,14.33
2018-09-12T02:08:45.136Z,16.67
2018-09-12T02:11:13.059Z,13.27
2018-09-12T02:13:41.183Z,14.20
2018-09-12T02:16:09.202Z,12.97
2018-09-12T02:18:37.434Z,11.40
2018-09-12T02:21:05.387Z,9.20
2018-09-12T02:23:33.413Z,9.37
2018-09-12T02:26:01.293Z,8.90
2018-09-12T02:28:29.201Z,17.97
2018-09-12T02:30:57.259Z,7.83
2018-09-12T02:33:25.246Z,9.90
2018-09-12T02:35:58.674Z,8.77
2018-09-12T02:38:26.558Z,10.33
2018-09-12T02:40:54.624Z,10.90
2018-09-12T02:43:22.576Z,8.87
2018-09-12T02:45:50.514Z,8.20
2018-09-12T02:48:18.592Z,7.63
2018-09-12T02:50:46.550Z,7.50
2018-09-12T02:53:14.390Z,6.87
2018-09-12T02:55:42.324Z,6.37
2018-09-12T02:58:10.271Z,9.17
2018-09-12T03:00:38.166Z,5.80
2018-09-12T03:03:06.573Z,7.43
2018-09-12T03:05:34.614Z,6.40
2018-09-12T03:08:02.635Z,7.20
2018-09-12T03:10:30.969Z,6.77
2018-09-12T03:12:58.970Z,7.27
2018-09-12T03:15:26.956Z,7.30
2018-09-12T03:17:54.995Z,8.70
2018-09-12T03:20:23.038Z,8.43
2018-09-12T03:22:50.934Z,10.50
2018-09-12T03:25:18.859Z,9.10
2018-09-12T03:27:46.730Z,9.70
2018-09-12T03:30:14.727Z,8.20
2018-09-12T03:32:42.734Z,7.37
2018-09-12T03:35:10.684Z,8.43
2018-09-12T03:37:38.560Z,7.90
2018-09-12T03:40:06.841Z,6.87
2018-09-12T03:42:34.803Z,8.03
2018-09-12T03:45:02.859Z,8.37
2018-09-12T03:47:30.799Z,8.23
2018-09-12T03:49:58.722Z,7.47
2018-09-12T03:52:26.788Z,8.77
2018-09-12T03:54:54.721Z,12.10
2018-09-12T03:57:22.643Z,9.77
2018-09-12T03:59:50.659Z,14.07
2018-09-12T04:02:18.531Z,11.43
2018-09-12T04:04:46.566Z,13.30
2018-09-12T04:07:14.486Z,13.17
2018-09-12T04:09:42.674Z,11.00
2018-09-12T04:12:10.575Z,15.03
2018-09-12T04:14:38.468Z,13.37
2018-09-12T04:17:06.441Z,10.33
2018-09-12T04:19:34.941Z,10.40
2018-09-12T04:22:03.048Z,10.50
2018-09-12T04:24:31.161Z,15.03
2018-09-12T04:26:59.202Z,8.97
2018-09-12T04:29:27.106Z,9.03
2018-09-12T04:31:55.056Z,9.47
2018-09-12T04:34:23.026Z,9.93
2018-09-12T04:36:51.303Z,8.80
2018-09-12T04:39:19.266Z,9.87
2018-09-12T04:41:49.393Z,12.90
2018-09-12T04:44:17.416Z,13.13
2018-09-12T04:46:45.549Z,12.07
2018-09-12T04:49:13.728Z,13.03
2018-09-12T04:51:42.110Z,12.97
2018-09-12T04:54:10.024Z,16.03
2018-09-12T04:56:38.986Z,19.37
2018-09-12T04:59:06.997Z,20.43
2018-09-12T05:01:34.901Z,16.23
2018-09-12T05:04:02.901Z,20.20
2018-09-12T05:06:30.922Z,15.97
2018-09-12T05:08:58.892Z,20.53
2018-09-12T05:11:27.105Z,21.37
2018-09-12T05:13:55.075Z,18.23
2018-09-12T05:16:23.073Z,19.97
2018-09-12T05:18:51.046Z,23.87
2018-09-12T05:21:19.054Z,22.47
2018-09-12T05:23:46.994Z,14.83
2018-09-12T05:26:14.869Z,25.37
2018-09-12T05:28:42.842Z,19.80
2018-09-12T05:31:10.898Z,27.47
2018-09-12T05:33:38.843Z,24.43
2018-09-12T05:36:07.023Z,24.97
2018-09-12T05:38:34.942Z,20.07
2018-09-12T05:41:02.946Z,24.30
2018-09-12T05:43:30.854Z,23.77
2018-09-12T05:45:58.789Z,20.80
2018-09-12T05:48:26.781Z,22.03
2018-09-12T05:50:54.751Z,18.53
2018-09-12T05:53:22.883Z,17.63
2018-09-12T05:55:50.949Z,16.77
2018-09-12T05:58:18.911Z,18.57
2018-09-12T06:00:47.166Z,22.27
2018-09-12T06:03:15.349Z,23.10
2018-09-12T06:05:44.782Z,20.57
2018-09-12T06:08:15.496Z,20.97
2018-09-12T06:10:43.660Z,21.03
2018-09-12T06:13:11.653Z,18.67
2018-09-12T06:15:39.880Z,22.10
2018-09-12T06:18:07.832Z,21.70
2018-09-12T06:20:36.081Z,22.57
2018-09-12T06:23:03.983Z,19.77
2018-09-12T06:25:31.944Z,20.33
2018-09-12T06:27:59.986Z,18.53
2018-09-12T06:30:28.122Z,19.80
2018-09-12T06:32:56.166Z,21.60
2018-09-12T06:35:24.180Z,23.92
2018-09-12T06:37:52.266Z,18.80
2018-09-12T06:40:20.454Z,23.17
2018-09-12T06:42:48.561Z,18.67
2018-09-12T06:45:16.688Z,19.97
2018-09-12T06:47:45.059Z,17.60
2018-09-12T06:50:12.985Z,16.77
2018-09-12T06:52:40.966Z,16.07
2018-09-12T06:55:09.027Z,14.20
2018-09-12T06:57:37.176Z,17.00
2018-09-12T07:00:05.536Z,16.43
2018-09-12T07:02:33.668Z,15.10
2018-09-12T07:05:01.625Z,13.77
2018-09-12T07:07:29.729Z,16.10
2018-09-12T07:09:57.606Z,13.20
2018-09-12T07:12:25.562Z,11.30
2018-09-12T07:14:55.134Z,10.73
2018-09-12T07:17:23.110Z,11.03
2018-09-12T07:19:51.178Z,9.90
2018-09-12T07:22:19.371Z,11.67
2018-09-12T07:24:47.549Z,9.80
2018-09-12T07:27:15.418Z,10.83
2018-09-12T07:29:44.063Z,8.93
2018-09-12T07:32:12.560Z,8.53
2018-09-12T07:34:40.763Z,11.83
2018-09-12T07:37:09.572Z,7.23
2018-09-12T07:39:43.140Z,7.43
2018-09-12T07:42:11.594Z,9.87
2018-09-12T07:44:41.036Z,7.93
2018-09-12T07:47:09.714Z,7.63
2018-09-12T07:49:38.033Z,8.63
2018-09-12T07:52:06.030Z,7.87
2018-09-12T07:54:35.094Z,7.83
2018-09-12T07:57:03.684Z,7.53
2018-09-12T07:59:38.715Z,6.50
2018-09-12T08:02:07.642Z,6.17
2018-09-12T08:04:35.583Z,6.60
2018-09-12T08:07:03.980Z,5.83
2018-09-12T08:09:31.926Z,6.30
2018-09-12T08:12:00.122Z,8.37
2018-09-12T08:14:28.161Z,7.40
2018-09-12T08:16:56.310Z,6.53
2018-09-12T08:19:24.599Z,7.50
2018-09-12T08:21:52.665Z,9.50
2018-09-12T08:24:20.848Z,7.67
2018-09-12T08:26:48.840Z,10.80
2018-09-12T08:29:16.725Z,11.07
2018-09-12T08:31:44.916Z,6.73
2018-09-12T08:34:12.925Z,7.30
2018-09-12T08:36:41.163Z,6.93
2018-09-12T08:39:09.502Z,11.70
2018-09-12T08:41:37.566Z,7.13
2018-09-12T08:44:05.983Z,5.33
2018-09-12T08:46:34.211Z,7.70
2018-09-12T08:49:02.265Z,5.57
2018-09-12T08:51:30.294Z,4.80
2018-09-12T08:53:58.409Z,5.27
2018-09-12T08:56:26.606Z,5.13
2018-09-12T08:58:54.951Z,5.53
2018-09-12T09:01:22.976Z,7.33
2018-09-12T09:03:51.133Z,4.40
2018-09-12T09:06:19.297Z,5.10
2018-09-12T09:08:47.416Z,7.80
2018-09-12T09:11:15.328Z,5.40
2018-09-12T09:13:43.437Z,11.07
2018-09-12T09:16:11.503Z,6.37
2018-09-12T09:18:39.622Z,6.47
2018-09-12T09:21:07.919Z,5.23
2018-09-12T09:23:35.946Z,6.63
2018-09-12T09:26:03.983Z,8.80
2018-09-12T09:28:32.148Z,8.17
2018-09-12T09:31:00.236Z,7.77
2018-09-12T09:33:28.334Z,5.00
2018-09-12T09:35:56.504Z,4.80
2018-09-12T09:38:24.485Z,4.67
2018-09-12T09:40:52.577Z,4.50
2018-09-12T09:43:20.645Z,5.37
2018-09-12T09:45:48.690Z,5.83
2018-09-12T09:48:16.774Z,5.87
2018-09-12T09:50:45.763Z,5.37
2018-09-12T09:53:13.744Z,7.70
2018-09-12T09:55:41.826Z,6.80
2018-09-12T09:58:09.874Z,6.23
2018-09-12T10:00:43.246Z,6.40
2018-09-12T10:03:17.545Z,6.00
2018-09-12T10:05:51.240Z,4.77
2018-09-12T10:08:24.524Z,5.20
2018-09-12T10:11:01.434Z,7.27
2018-09-12T10:13:29.409Z,5.60
2018-09-12T10:15:58.296Z,5.83
2018-09-12T10:18:25.886Z,5.40
2018-09-12T10:20:54.008Z,5.40
2018-09-12T10:23:22.969Z,6.10
2018-09-12T10:25:51.533Z,4.50
2018-09-12T10:28:19.658Z,5.73
2018-09-12T10:30:47.895Z,7.83
2018-09-12T10:33:16.059Z,5.00
2018-09-12T10:35:44.070Z,5.60
2018-09-12T10:38:12.103Z,5.80
2018-09-12T10:40:40.063Z,5.00
2018-09-12T10:43:10.479Z,6.70
2018-09-12T10:45:38.754Z,5.57
2018-09-12T10:48:09.207Z,7.53
2018-09-12T10:50:37.719Z,4.57
2018-09-12T10:53:08.350Z,5.17
2018-09-12T10:55:36.466Z,5.10
2018-09-12T10:58:04.468Z,4.83
2018-09-12T11:00:32.512Z,4.00
2018-09-12T11:03:00.547Z,4.53
2018-09-12T11:05:28.621Z,6.30
2018-09-12T11:07:56.627Z,5.20
2018-09-12T11:10:24.640Z,5.00
2018-09-12T11:12:52.520Z,6.93
2018-09-12T11:15:20.809Z,5.70
2018-09-12T11:17:48.798Z,7.57
2018-09-12T11:20:17.814Z,6.33
2018-09-12T11:22:45.768Z,7.50
2018-09-12T11:25:13.754Z,6.60
2018-09-12T11:27:41.784Z,5.67
2018-09-12T11:30:09.812Z,5.60
2018-09-12T11:32:37.830Z,6.00
2018-09-12T11:35:06.292Z,6.40
2018-09-12T11:37:34.228Z,7.53
2018-09-12T11:40:02.264Z,4.80
2018-09-12T11:42:31.202Z,5.00
2018-09-12T11:44:59.248Z,4.97
2018-09-12T11:47:27.251Z,4.93
2018-09-12T11:49:59.738Z,5.50
2018-09-12T11:52:27.987Z,6.03
2018-09-12T11:54:56.656Z,4.83
2018-09-12T11:57:24.590Z,5.17
2018-09-12T11:59:52.474Z,7.63
2018-09-12T12:02:20.787Z,7.20
2018-09-12T12:04:49.304Z,4.23
2018-09-12T12:07:17.289Z,7.17
2018-09-12T12:09:45.722Z,4.50
2018-09-12T12:12:13.811Z,4.03
2018-09-12T12:14:42.195Z,4.37
2018-09-12T12:17:10.179Z,5.13
2018-09-12T12:19:38.084Z,5.83
2018-09-12T12:22:06.101Z,9.90
2018-09-12T12:24:33.999Z,3.73
2018-09-12T12:27:02.729Z,7.83
2018-09-12T12:29:30.814Z,5.73
2018-09-12T12:31:59.024Z,5.17
2018-09-12T12:34:27.050Z,5.27
2018-09-12T12:36:54.927Z,6.77
2018-09-12T12:39:23.013Z,7.27
2018-09-12T12:41:50.994Z,3.53
2018-09-12T12:44:19.007Z,3.93
2018-09-12T12:46:47.266Z,9.43
2018-09-12T12:49:15.171Z,5.93
2018-09-12T12:51:43.164Z,5.83
2018-09-12T12:54:11.112Z,5.67
2018-09-12T12:56:39.266Z,6.50
2018-09-12T12:59:14.519Z,5.63
2018-09-12T13:01:48.938Z,6.77
2018-09-12T13:04:17.055Z,8.53
2018-09-12T13:06:45.210Z,5.00
2018-09-12T13:09:13.587Z,5.70
2018-09-12T13:11:41.662Z,5.87
2018-09-12T13:14:16.544Z,5.40
2018-09-12T13:16:47.513Z,4.60
2018-09-12T13:19:15.585Z,5.43
2018-09-12T13:21:48.353Z,10.13
2018-09-12T13:24:16.481Z,4.60
2018-09-12T13:26:44.473Z,4.70
2018-09-12T13:29:12.494Z,8.07
2018-09-12T13:31:41.067Z,6.47
2018-09-12T13:34:09.083Z,5.97
2018-09-12T13:36:37.161Z,5.63
2018-09-12T13:39:09.527Z,8.97
2018-09-12T13:41:37.556Z,9.10
2018-09-12T13:44:05.472Z,5.50
2018-09-12T13:46:33.500Z,6.17
2018-09-12T13:49:01.453Z,4.20
2018-09-12T13:51:29.858Z,7.83
2018-09-12T13:53:57.921Z,6.13
2018-09-12T13:56:25.858Z,4.97
2018-09-12T13:58:53.850Z,4.43
2018-09-12T14:01:21.982Z,7.03
2018-09-12T14:03:49.883Z,7.77
2018-09-12T14:06:18.052Z,3.90
2018-09-12T14:08:45.998Z,4.10
2018-09-12T14:11:14.784Z,5.40
2018-09-12T14:13:42.715Z,4.33
2018-09-12T14:16:10.648Z,4.60
2018-09-12T14:18:38.697Z,4.93
2018-09-12T14:21:06.677Z,4.57
2018-09-12T14:23:34.502Z,5.07
2018-09-12T14:26:02.734Z,6.67
2018-09-12T14:28:30.642Z,3.80
2018-09-12T14:30:58.638Z,4.80
2018-09-12T14:33:27.262Z,4.23
2018-09-12T14:35:55.308Z,5.53
2018-09-12T14:38:23.322Z,5.63
2018-09-12T14:40:51.314Z,4.73
2018-09-12T14:43:19.498Z,4.13
2018-09-12T14:45:48.219Z,5.17
2018-09-12T14:48:16.388Z,6.23
2018-09-12T14:50:46.191Z,6.53
2018-09-12T14:53:14.100Z,6.33
2018-09-12T14:55:42.400Z,4.87
2018-09-12T14:58:10.418Z,3.70
2018-09-12T15:00:38.494Z,5.20
2018-09-12T15:03:08.708Z,5.33
2018-09-12T15:05:38.890Z,6.67
2018-09-12T15:08:06.881Z,6.17
2018-09-12T15:10:34.863Z,4.17
2018-09-12T15:13:02.839Z,6.10
2018-09-12T15:15:31.940Z,5.87
2018-09-12T15:17:59.970Z,5.63
2018-09-12T15:20:27.926Z,5.13
2018-09-12T15:22:55.975Z,5.13
2018-09-12T15:25:23.957Z,5.37
2018-09-12T15:27:52.368Z,4.97
2018-09-12T15:30:20.368Z,4.60
2018-09-12T15:32:48.462Z,4.60
2018-09-12T15:35:16.528Z,4.30
2018-09-12T15:37:44.526Z,4.60
2018-09-12T15:40:14.715Z,5.30
2018-09-12T15:42:44.768Z,7.40
2018-09-12T15:45:12.778Z,5.30
2018-09-12T15:47:43.816Z,5.43
2018-09-12T15:50:14.417Z,4.87
2018-09-12T15:52:43.226Z,6.43
2018-09-12T15:55:11.163Z,5.70
2018-09-12T15:57:39.265Z,8.53
2018-09-12T16:00:07.374Z,6.10
2018-09-12T16:02:35.280Z,8.40
2018-09-12T16:05:03.385Z,7.20
2018-09-12T16:07:31.233Z,9.50
2018-09-12T16:09:59.430Z,4.97
2018-09-12T16:12:27.620Z,7.87
2018-09-12T16:14:56.470Z,9.37
2018-09-12T16:17:24.497Z,6.83
2018-09-12T16:20:25.447Z,7.20
2018-09-12T16:22:54.141Z,10.20
2018-09-12T16:25:25.269Z,7.13
2018-09-12T16:27:53.305Z,9.47
2018-09-12T16:30:21.341Z,8.60
2018-09-12T16:32:49.349Z,8.80
2018-09-12T16:35:17.366Z,6.73
2018-09-12T16:37:45.320Z,6.67
2018-09-12T16:40:18.224Z,7.53
2018-09-12T16:42:47.999Z,6.43
2018-09-12T16:45:17.891Z,9.40
2018-09-12T16:47:45.914Z,7.90
2018-09-12T16:50:16.997Z,5.73
2018-09-12T16:52:46.054Z,10.53
2018-09-12T16:55:15.396Z,8.33
2018-09-12T16:57:45.232Z,7.73
2018-09-12T17:02:58.017Z,6.63
2018-09-12T17:05:26.885Z,9.53
2018-09-12T17:07:54.872Z,10.33
2018-09-12T17:10:24.243Z,10.67
2018-09-12T17:12:53.335Z,13.67
2018-09-12T17:15:27.362Z,10.13
2018-09-12T17:17:55.454Z,8.70
2018-09-12T17:20:30.672Z,9.40
2018-09-12T17:22:58.846Z,9.97
2018-09-12T17:25:29.258Z,6.80
2018-09-12T17:28:03.380Z,9.50
2018-09-12T17:30:35.417Z,7.13
2018-09-12T17:33:05.551Z,10.00
2018-09-12T17:35:33.942Z,10.03
2018-09-12T17:38:43.219Z,13.13
2018-09-12T17:41:12.053Z,11.13
2018-09-12T17:43:42.442Z,12.13
2018-09-12T17:46:11.973Z,10.07
2018-09-12T17:52:02.346Z,7.93
2018-09-12T17:54:33.272Z,13.43
2018-09-12T17:57:03.430Z,8.30
2018-09-12T17:59:42.984Z,9.27
2018-09-12T18:02:21.968Z,7.77
2018-09-12T18:04:50.856Z,9.17
2018-09-12T18:07:51.654Z,10.00
2018-09-12T18:10:20.542Z,11.27
2018-09-12T18:12:48.651Z,9.33
2018-09-12T18:15:16.860Z,13.53
2018-09-12T18:17:45.046Z,10.70
2018-09-12T18:20:13.383Z,14.67
2018-09-12T18:22:42.928Z,11.37
2018-09-12T18:25:12.230Z,9.53
2018-09-12T18:27:40.310Z,16.37
2018-09-12T18:30:08.896Z,8.47
2018-09-12T18:32:37.403Z,10.17
2018-09-12T18:35:09.041Z,9.77
2018-09-12T18:37:41.589Z,7.77
2018-09-12T18:40:10.919Z,9.33
2018-09-12T18:42:39.126Z,10.73
2018-09-12T18:45:11.120Z,9.13
2018-09-12T18:50:23.290Z,9.13
2018-09-12T18:52:55.429Z,12.47
2018-09-12T18:55:24.744Z,7.50
2018-09-12T18:57:52.704Z,11.90
2018-09-12T19:00:21.224Z,10.03
2018-09-12T19:02:49.196Z,9.30
2018-09-12T19:05:17.057Z,8.80
2018-09-12T19:07:45.086Z,7.40
2018-09-12T19:10:13.143Z,9.00
2018-09-12T19:12:41.061Z,11.40
2018-09-12T19:15:09.012Z,8.53
2018-09-12T19:17:37.009Z,8.13
2018-09-12T19:20:05.263Z,8.70
2018-09-12T19:22:33.238Z,8.90
2018-09-12T19:25:01.202Z,7.60
2018-09-12T19:27:29.184Z,8.50
2018-09-12T19:29:57.188Z,8.37
2018-09-12T19:32:26.214Z,9.30
2018-09-12T19:34:54.257Z,7.97
2018-09-12T19:37:22.448Z,8.47
2018-09-12T19:40:04.347Z,7.13
2018-09-12T19:42:32.715Z,6.87
2018-09-12T19:45:00.711Z,8.37
2018-09-12T19:47:28.570Z,9.37
2018-09-12T19:49:56.571Z,6.17
2018-09-12T19:52:24.601Z,6.40
2018-09-12T19:54:52.664Z,8.37
2018-09-12T19:57:20.754Z,7.03
2018-09-12T19:59:48.998Z,7.13
2018-09-12T20:02:32.658Z,12.73
2018-09-12T20:05:00.928Z,10.50
2018-09-12T20:07:30.355Z,6.90
2018-09-12T20:09:58.525Z,8.60
2018-09-12T20:12:27.192Z,6.90
2018-09-12T20:14:55.294Z,8.40
2018-09-12T20:17:23.359Z,8.50
2018-09-12T20:19:51.408Z,6.23
2018-09-12T20:22:19.548Z,8.80
2018-09-12T20:24:47.836Z,9.33
2018-09-12T20:27:15.940Z,8.10
2018-09-12T20:29:44.787Z,12.70
2018-09-12T20:32:12.781Z,8.50
2018-09-12T20:34:41.312Z,8.77
2018-09-12T20:37:10.126Z,9.60
2018-09-12T20:39:38.245Z,9.97
2018-09-12T20:42:06.279Z,10.80
2018-09-12T20:44:34.284Z,11.60
2018-09-12T20:47:02.186Z,9.70
2018-09-12T20:49:30.027Z,10.13
2018-09-12T20:51:57.958Z,11.73
2018-09-12T20:54:25.890Z,10.00
2018-09-12T20:56:53.914Z,11.23
2018-09-12T20:59:21.881Z,9.43
2018-09-12T21:01:49.821Z,16.23
2018-09-12T21:04:17.805Z,12.47
2018-09-12T21:06:45.766Z,10.63
2018-09-12T21:09:20.258Z,11.50
2018-09-12T21:11:48.171Z,10.40
2018-09-12T21:14:16.325Z,12.07
2018-09-12T21:16:44.348Z,15.37
2018-09-12T21:19:12.314Z,15.00
2018-09-12T21:21:40.315Z,12.37
2018-09-12T21:24:08.189Z,10.47
2018-09-12T21:26:36.239Z,12.90
2018-09-12T21:29:04.193Z,15.93
2018-09-12T21:31:32.070Z,14.10
2018-09-12T21:34:00.165Z,11.23
2018-09-12T21:36:28.092Z,12.00
2018-09-12T21:38:56.015Z,16.80
2018-09-12T21:41:23.984Z,12.57
2018-09-12T21:43:51.875Z,10.93
2018-09-12T21:46:21.009Z,12.20
2018-09-12T21:48:48.929Z,12.87
2018-09-12T21:51:16.889Z,12.10
2018-09-12T21:53:44.922Z,10.97
2018-09-12T21:56:12.863Z,13.07
2018-09-12T21:58:40.805Z,12.03
2018-09-12T22:01:08.747Z,10.73
2018-09-12T22:03:36.623Z,13.03
2018-09-12T22:06:04.693Z,14.67
2018-09-12T22:08:32.611Z,14.00
2018-09-12T22:11:00.575Z,15.20
2018-09-12T22:13:28.541Z,13.93
2018-09-12T22:15:56.479Z,14.20
2018-09-12T22:18:24.415Z,11.63
2018-09-12T22:20:52.446Z,11.80
2018-09-12T22:23:20.405Z,16.07
2018-09-12T22:25:48.370Z,13.67
2018-09-12T22:28:16.295Z,10.20
2018-09-12T22:30:44.542Z,14.40
2018-09-12T22:33:12.478Z,13.20
2018-09-12T22:35:41.729Z,10.07
2018-09-12T22:38:09.672Z,10.10
2018-09-12T22:40:37.596Z,10.27
2018-09-12T22:43:05.642Z,10.20
2018-09-12T22:45:33.578Z,10.63
2018-09-12T22:48:01.599Z,13.37
2018-09-12T22:50:29.543Z,11.57
2018-09-12T22:52:57.459Z,9.93
2018-09-12T22:55:25.376Z,9.33
2018-09-12T22:57:53.463Z,13.53
2018-09-12T23:00:21.773Z,11.97
2018-09-12T23:02:49.814Z,10.37
2018-09-12T23:05:18.059Z,12.60
2018-09-12T23:07:46.025Z,11.47
2018-09-12T23:10:13.945Z,11.87
2018-09-12T23:12:41.885Z,17.00
2018-09-12T23:15:09.821Z,10.30
2018-09-12T23:17:37.797Z,10.03
2018-09-12T23:20:06.113Z,9.47
2018-09-12T23:22:34.063Z,10.47
2018-09-12T23:25:02.151Z,9.83
2018-09-12T23:27:30.271Z,10.83
2018-09-12T23:29:58.125Z,13.83
2018-09-12T23:32:26.045Z,17.43
2018-09-12T23:34:54.162Z,13.13
2018-09-12T23:37:22.097Z,15.67
2018-09-12T23:39:50.194Z,14.93
2018-09-12T23:42:18.193Z,12.43
2018-09-12T23:44:46.532Z,12.17
2018-09-12T23:47:14.502Z,11.37
2018-09-12T23:49:42.676Z,13.47
2018-09-12T23:52:10.709Z,12.80
2018-09-12T23:54:39.599Z,15.10
2018-09-12T23:57:07.530Z,13.07
2018-09-12T23:59:35.463Z,13.03
